Time;durP1;ratioP1;P1;durP2;ratioP2;P2;SDS_P1;SDS_P2;PMS_P1;PMS_P2;Temp;Humidity;BMP_temperature;BMP_pressure;BME280_temperature;BME280_humidity;BME280_pressure;Samples;Min_cycle;Max_cycle;Signal;HPM_P1;HPM_P2
2023/04/30 02:40:56;;;;;;;20.37;19.07;;;12.40;99.90;;;;;;5648034;23;20892;-75
2023/04/30 02:43:22;;;;;;;21.20;19.70;;;12.40;99.90;;;;;;4935228;29;20460;-77
2023/04/30 02:45:49;;;;;;;21.20;19.60;;;12.40;99.90;;;;;;4935396;29;20463;-77
2023/04/30 02:48:16;;;;;;;21.20;19.70;;;12.40;99.90;;;;;;4935501;29;20943;-75
2023/04/30 02:50:42;;;;;;;22.23;20.73;;;12.40;99.90;;;;;;4934875;29;20943;-77
2023/04/30 02:53:09;;;;;;;22.10;20.60;;;12.40;99.90;;;;;;4935051;29;20947;-77
2023/04/30 02:55:36;;;;;;;21.63;20.00;;;12.50;99.90;;;;;;4935113;29;20457;-76
2023/04/30 02:58:04;;;;;;;22.73;21.13;;;12.50;99.90;;;;;;4935449;29;20492;-77
2023/04/30 03:00:30;;;;;;;22.83;21.20;;;12.50;99.90;;;;;;4934800;29;20528;-77
2023/04/30 03:02:57;;;;;;;22.50;20.80;;;12.50;99.90;;;;;;4935160;29;20457;-77
2023/04/30 03:05:24;;;;;;;22.33;20.93;;;12.40;99.90;;;;;;4935078;29;20890;-77
2023/04/30 03:07:50;;;;;;;21.37;19.83;;;12.40;99.90;;;;;;4933728;29;20461;-77
2023/04/30 03:10:17;;;;;;;22.30;20.70;;;12.40;99.90;;;;;;4936023;29;20457;-76
2023/04/30 03:12:44;;;;;;;23.27;21.60;;;12.40;99.90;;;;;;4935194;29;20464;-75
2023/04/30 03:15:12;;;;;;;22.63;20.83;;;12.50;99.90;;;;;;4934395;29;20448;-75
2023/04/30 03:17:39;;;;;;;21.63;20.20;;;12.40;99.90;;;;;;4934286;29;20557;-75
2023/04/30 03:20:07;;;;;;;22.77;21.10;;;12.30;99.90;;;;;;4934313;29;20481;-75
2023/04/30 03:22:34;;;;;;;22.10;20.60;;;12.40;99.90;;;;;;4934484;29;20461;-76
2023/04/30 03:25:00;;;;;;;22.90;21.40;;;12.40;99.90;;;;;;4934423;29;20813;-76
2023/04/30 03:27:27;;;;;;;23.87;22.07;;;12.40;99.90;;;;;;4934163;29;20453;-76
2023/04/30 03:29:54;;;;;;;22.30;20.80;;;12.40;99.90;;;;;;4934310;29;20449;-77
2023/04/30 03:32:22;;;;;;;21.53;20.13;;;12.30;99.90;;;;;;4934386;29;20449;-77
2023/04/30 03:34:48;;;;;;;22.80;21.03;;;12.30;99.90;;;;;;4934489;29;20460;-76
2023/04/30 03:37:15;;;;;;;23.80;22.10;;;12.20;99.90;;;;;;4933820;29;20456;-76
2023/04/30 03:39:42;;;;;;;23.77;22.07;;;12.00;99.90;;;;;;4933769;29;20845;-76
2023/04/30 03:42:08;;;;;;;22.70;21.10;;;12.00;99.90;;;;;;4933952;29;20881;-77
2023/04/30 03:44:36;;;;;;;24.80;22.77;;;11.90;99.90;;;;;;4933943;29;20576;-76
2023/04/30 03:47:03;;;;;;;23.40;21.70;;;12.00;99.90;;;;;;4934174;29;20513;-76
2023/04/30 03:49:31;;;;;;;22.33;20.63;;;11.90;99.90;;;;;;4934912;29;20461;-76
2023/04/30 03:51:57;;;;;;;21.70;20.30;;;12.00;99.90;;;;;;4935020;29;20458;-76
2023/04/30 03:54:24;;;;;;;22.50;20.90;;;12.00;99.90;;;;;;4935235;29;20464;-75
2023/04/30 03:56:51;;;;;;;22.60;20.97;;;11.90;99.90;;;;;;4935243;29;20464;-76
2023/04/30 03:59:18;;;;;;;24.20;22.40;;;12.00;99.90;;;;;;4935207;29;21007;-78
2023/04/30 04:01:44;;;;;;;21.97;20.47;;;11.80;99.90;;;;;;4935064;29;20456;-77
2023/04/30 04:04:12;;;;;;;22.70;20.90;;;11.80;99.90;;;;;;4934874;29;20465;-77
2023/04/30 04:06:40;;;;;;;21.30;19.90;;;11.80;99.90;;;;;;4934998;29;20461;-77
2023/04/30 04:09:06;;;;;;;21.80;20.20;;;11.70;99.90;;;;;;4935013;29;20454;-77
2023/04/30 04:11:33;;;;;;;22.93;21.43;;;11.80;99.90;;;;;;4934970;29;20956;-77
2023/04/30 04:14:00;;;;;;;22.10;20.60;;;12.00;99.90;;;;;;4935012;29;20450;-76
2023/04/30 04:16:26;;;;;;;21.60;20.30;;;12.00;99.90;;;;;;4934937;29;20465;-77
2023/04/30 04:18:53;;;;;;;23.03;21.30;;;12.10;99.90;;;;;;4934663;29;20493;-77
2023/04/30 04:21:21;;;;;;;20.70;19.30;;;12.00;99.90;;;;;;4934900;29;20460;-77
2023/04/30 04:23:49;;;;;;;22.63;21.03;;;12.10;99.90;;;;;;4934857;29;20465;-75
2023/04/30 04:26:18;;;;;;;21.97;20.67;;;12.10;99.90;;;;;;4934785;29;20461;-77
2023/04/30 04:28:45;;;;;;;21.67;20.23;;;12.20;99.90;;;;;;4934724;29;20461;-75
2023/04/30 04:31:11;;;;;;;22.40;20.87;;;12.10;99.90;;;;;;4934455;29;20457;-75
2023/04/30 04:33:38;;;;;;;21.67;20.37;;;12.20;99.90;;;;;;4934408;29;20453;-75
2023/04/30 04:36:05;;;;;;;22.17;20.57;;;12.10;99.90;;;;;;4934449;29;20453;-75
2023/04/30 04:38:32;;;;;;;23.20;21.50;;;12.00;99.90;;;;;;4934477;29;20552;-76
2023/04/30 04:41:00;;;;;;;21.70;20.00;;;11.90;99.90;;;;;;4934235;29;20497;-75
2023/04/30 04:43:27;;;;;;;22.17;20.57;;;12.00;99.90;;;;;;4934299;29;20457;-75
2023/04/30 04:45:54;;;;;;;20.63;19.30;;;12.00;99.90;;;;;;4934404;29;20651;-76
2023/04/30 04:48:20;;;;;;;21.63;20.20;;;12.20;99.90;;;;;;4933534;29;20464;-75
2023/04/30 04:50:47;;;;;;;21.90;20.30;;;12.20;99.90;;;;;;4934331;29;20990;-75
2023/04/30 04:53:13;;;;;;;21.67;20.27;;;12.30;99.90;;;;;;4933994;29;20462;-74
2023/04/30 04:55:40;;;;;;;21.53;19.83;;;12.30;99.90;;;;;;4934010;29;20457;-75
2023/04/30 04:58:08;;;;;;;21.13;19.53;;;12.20;99.90;;;;;;4933905;29;20450;-75
2023/04/30 05:00:35;;;;;;;19.90;18.50;;;12.40;99.90;;;;;;4934019;29;20449;-76
2023/04/30 05:03:01;;;;;;;19.40;18.00;;;12.50;99.90;;;;;;4934173;29;20465;-76
2023/04/30 05:05:28;;;;;;;21.10;19.43;;;12.60;99.90;;;;;;4933809;29;20464;-75
2023/04/30 05:07:55;;;;;;;20.33;19.00;;;12.80;99.90;;;;;;4933726;29;20618;-75
2023/04/30 05:10:22;;;;;;;19.50;18.30;;;13.00;99.90;;;;;;4933546;29;20509;-76
2023/04/30 05:12:48;;;;;;;19.50;18.10;;;13.00;99.90;;;;;;4933978;29;20453;-75
2023/04/30 05:15:16;;;;;;;20.50;19.00;;;13.10;99.90;;;;;;4933821;29;20465;-75
2023/04/30 05:17:43;;;;;;;19.17;17.47;;;13.10;99.90;;;;;;4932516;29;20462;-76
2023/04/30 05:20:12;;;;;;;19.20;17.70;;;13.20;99.90;;;;;;4932191;29;20481;-77
2023/04/30 05:22:39;;;;;;;19.70;18.40;;;13.20;99.90;;;;;;4932207;29;20488;-78
2023/04/30 05:25:06;;;;;;;20.27;18.67;;;13.20;99.90;;;;;;4932928;29;20460;-75
2023/04/30 05:27:33;;;;;;;21.07;19.07;;;13.30;99.90;;;;;;4932294;29;20792;-75
2023/04/30 05:30:00;;;;;;;18.37;17.17;;;13.50;99.90;;;;;;4927713;29;20453;-74
2023/04/30 05:32:28;;;;;;;20.30;18.70;;;13.50;99.90;;;;;;4931731;29;20469;-75
2023/04/30 05:34:55;;;;;;;18.80;17.50;;;13.40;99.90;;;;;;4931911;29;20438;-75
2023/04/30 05:37:22;;;;;;;19.27;17.77;;;13.40;99.90;;;;;;4931952;29;20516;-74
2023/04/30 05:39:49;;;;;;;18.00;16.90;;;13.30;99.90;;;;;;4931862;29;20545;-75
2023/04/30 05:42:17;;;;;;;19.33;17.50;;;13.40;99.90;;;;;;4931398;29;20487;-75
2023/04/30 05:44:43;;;;;;;18.80;17.57;;;13.50;99.90;;;;;;4931527;29;20438;-75
2023/04/30 05:47:10;;;;;;;19.33;18.13;;;13.70;99.90;;;;;;4931903;29;20509;-75
2023/04/30 05:49:38;;;;;;;18.30;17.10;;;13.70;99.90;;;;;;4931924;29;20808;-75
2023/04/30 05:52:05;;;;;;;18.87;17.67;;;13.60;99.90;;;;;;4929181;29;20449;-76
2023/04/30 05:54:32;;;;;;;18.30;17.10;;;13.80;99.90;;;;;;4931734;29;20457;-74
2023/04/30 05:56:58;;;;;;;18.27;17.07;;;14.00;99.90;;;;;;4931562;29;20450;-75
2023/04/30 05:59:25;;;;;;;17.20;16.00;;;14.10;99.90;;;;;;4928740;29;20520;-73
2023/04/30 06:01:52;;;;;;;18.17;17.00;;;14.00;99.90;;;;;;4931263;29;20488;-75
2023/04/30 06:04:19;;;;;;;18.90;17.40;;;14.00;99.90;;;;;;4931527;29;20913;-74
2023/04/30 06:06:47;;;;;;;18.20;17.10;;;14.10;99.90;;;;;;4929058;29;20449;-75
2023/04/30 06:09:13;;;;;;;17.73;16.47;;;14.30;99.90;;;;;;4931309;29;20449;-75
2023/04/30 06:11:40;;;;;;;19.00;17.50;;;14.80;99.90;;;;;;4931202;29;20453;-75
2023/04/30 06:14:07;;;;;;;18.43;17.23;;;15.10;99.90;;;;;;4931314;29;20920;-74
2023/04/30 06:16:33;;;;;;;17.87;16.67;;;15.30;99.90;;;;;;4931286;29;20457;-73
2023/04/30 06:19:00;;;;;;;18.53;17.20;;;15.40;99.90;;;;;;4931103;29;20995;-75
2023/04/30 06:21:27;;;;;;;17.40;16.37;;;15.40;99.90;;;;;;4931195;29;20449;-74
2023/04/30 06:23:55;;;;;;;17.40;16.30;;;15.50;99.90;;;;;;4931073;29;20451;-76
2023/04/30 06:26:21;;;;;;;17.20;16.10;;;15.50;99.90;;;;;;4931066;29;20452;-75
2023/04/30 06:28:48;;;;;;;17.47;16.20;;;15.50;99.90;;;;;;4931249;29;20449;-74
2023/04/30 06:31:15;;;;;;;18.20;16.83;;;15.30;99.90;;;;;;4931120;29;20468;-74
2023/04/30 06:33:41;;;;;;;17.03;15.93;;;14.80;99.90;;;;;;4930952;29;20454;-74
2023/04/30 06:36:08;;;;;;;17.60;16.30;;;14.60;99.90;;;;;;4926135;29;20529;-74
2023/04/30 06:38:35;;;;;;;16.83;15.70;;;14.60;99.90;;;;;;4931114;29;20454;-74
2023/04/30 06:41:03;;;;;;;15.87;14.77;;;15.00;99.90;;;;;;4932152;29;21033;-75
2023/04/30 06:43:30;;;;;;;16.20;15.03;;;15.20;99.90;;;;;;4932455;29;20456;-75
2023/04/30 06:45:56;;;;;;;16.53;15.33;;;15.30;99.90;;;;;;4932416;29;20496;-76
2023/04/30 06:48:23;;;;;;;16.83;15.50;;;15.50;99.90;;;;;;4932307;29;20971;-74
2023/04/30 06:50:50;;;;;;;17.20;15.90;;;15.50;99.90;;;;;;4932540;29;20454;-75
2023/04/30 06:53:16;;;;;;;17.13;15.70;;;15.60;99.90;;;;;;4932952;29;20507;-75
2023/04/30 06:55:45;;;;;;;15.60;14.53;;;15.80;99.90;;;;;;4932250;29;20512;-75
2023/04/30 06:58:13;;;;;;;17.27;15.83;;;15.90;99.90;;;;;;4932278;29;20512;-76
2023/04/30 07:00:41;;;;;;;16.97;15.67;;;16.30;99.90;;;;;;4932056;29;20500;-75
2023/04/30 07:03:07;;;;;;;16.30;15.30;;;16.50;99.90;;;;;;4932154;29;20875;-75
2023/04/30 07:05:34;;;;;;;16.53;15.53;;;17.00;99.90;;;;;;4932522;29;20559;-76
2023/04/30 07:08:02;;;;;;;17.07;15.93;;;17.30;99.90;;;;;;4932433;29;20461;-75
2023/04/30 07:10:29;;;;;;;17.13;16.03;;;17.60;99.90;;;;;;4932288;29;20779;-74
2023/04/30 07:12:55;;;;;;;15.27;14.37;;;17.80;99.70;;;;;;4935227;29;21168;-76
2023/04/30 07:15:23;;;;;;;16.30;15.30;;;17.80;99.40;;;;;;4935761;29;21074;-75
2023/04/30 07:17:50;;;;;;;15.93;15.03;;;17.30;99.90;;;;;;4934658;29;20818;-74
2023/04/30 07:20:17;;;;;;;16.63;15.53;;;17.10;99.90;;;;;;4934463;29;20485;-74
2023/04/30 07:22:44;;;;;;;17.10;15.80;;;16.80;99.90;;;;;;4934294;29;20437;-74
2023/04/30 07:25:11;;;;;;;17.20;16.00;;;16.50;99.90;;;;;;4934157;29;20449;-75
2023/04/30 07:27:38;;;;;;;17.13;16.00;;;16.50;99.90;;;;;;4932297;29;20453;-74
2023/04/30 07:30:07;;;;;;;16.30;15.30;;;16.60;99.90;;;;;;4933012;29;20540;-78
2023/04/30 07:32:36;;;;;;;15.63;14.83;;;17.00;99.90;;;;;;4935123;29;20457;-75
2023/04/30 07:35:03;;;;;;;17.27;16.27;;;17.10;99.90;;;;;;4935454;29;20457;-76
2023/04/30 07:37:30;;;;;;;16.73;15.63;;;16.80;99.90;;;;;;4933284;29;20476;-75
2023/04/30 07:39:57;;;;;;;15.70;14.70;;;17.00;99.90;;;;;;4934571;29;21010;-76
2023/04/30 07:42:23;;;;;;;15.30;14.50;;;17.30;99.90;;;;;;4934387;29;20508;-75
2023/04/30 07:44:51;;;;;;;16.23;15.13;;;18.00;99.50;;;;;;4934918;29;20513;-76
2023/04/30 07:47:18;;;;;;;15.93;14.47;;;18.60;98.20;;;;;;4934951;29;20465;-76
2023/04/30 07:49:47;;;;;;;15.40;14.50;;;18.80;97.50;;;;;;4934838;29;20457;-76
2023/04/30 07:52:13;;;;;;;15.77;14.83;;;19.10;95.90;;;;;;4934758;29;20461;-77
2023/04/30 07:54:40;;;;;;;17.47;16.33;;;18.80;95.30;;;;;;4934432;29;20466;-76
2023/04/30 07:57:07;;;;;;;16.57;15.47;;;18.90;95.90;;;;;;4934486;29;20457;-77
2023/04/30 07:59:34;;;;;;;15.70;14.80;;;18.80;94.80;;;;;;4934723;29;20607;-77
2023/04/30 08:02:01;;;;;;;15.90;15.00;;;18.80;95.00;;;;;;4934576;29;20453;-77
2023/04/30 08:04:27;;;;;;;14.40;13.70;;;18.80;94.50;;;;;;4934372;29;20480;-75
2023/04/30 08:06:55;;;;;;;15.13;14.33;;;18.80;95.10;;;;;;4934209;29;20480;-76
2023/04/30 08:09:22;;;;;;;15.57;14.77;;;18.90;94.20;;;;;;4934142;29;20615;-75
2023/04/30 08:11:49;;;;;;;15.13;14.23;;;19.00;94.10;;;;;;4934653;29;20468;-76
2023/04/30 08:14:15;;;;;;;14.43;13.73;;;19.40;93.20;;;;;;4934402;29;20445;-76
2023/04/30 08:16:42;;;;;;;15.10;14.30;;;19.90;92.80;;;;;;4934222;29;20831;-76
2023/04/30 08:19:09;;;;;;;14.93;14.13;;;19.70;92.50;;;;;;4934090;29;20461;-76
2023/04/30 08:21:36;;;;;;;14.37;13.57;;;19.70;91.90;;;;;;4934375;29;20453;-76
2023/04/30 08:24:04;;;;;;;14.80;14.03;;;20.20;92.60;;;;;;4933061;29;20454;-77
2023/04/30 08:26:31;;;;;;;14.40;13.70;;;20.40;89.70;;;;;;4934140;29;20465;-77
2023/04/30 08:28:57;;;;;;;13.83;13.13;;;20.40;88.20;;;;;;4934164;29;20458;-76
2023/04/30 08:31:24;;;;;;;13.80;13.20;;;20.30;87.40;;;;;;4933941;29;20442;-76
2023/04/30 08:33:51;;;;;;;13.50;12.90;;;20.60;88.00;;;;;;4934032;29;20956;-77
2023/04/30 08:36:18;;;;;;;13.43;12.70;;;20.50;85.30;;;;;;4934122;29;20458;-77
2023/04/30 08:38:45;;;;;;;13.93;13.23;;;20.40;84.80;;;;;;4933830;29;20465;-76
2023/04/30 08:41:14;;;;;;;13.37;12.77;;;20.50;83.50;;;;;;4933478;29;20525;-76
2023/04/30 08:43:43;;;;;;;12.27;11.67;;;20.50;83.30;;;;;;4933710;29;20553;-76
2023/04/30 08:46:12;;;;;;;13.00;12.30;;;19.60;82.20;;;;;;4933687;29;20465;-77
2023/04/30 08:48:40;;;;;;;12.93;12.33;;;18.80;84.90;;;;;;4933541;29;20748;-76
2023/04/30 08:51:07;;;;;;;12.77;12.17;;;18.70;86.80;;;;;;4933415;29;20986;-77
2023/04/30 08:53:36;;;;;;;12.30;11.43;;;18.70;86.10;;;;;;4933593;29;20944;-76
2023/04/30 08:56:03;;;;;;;12.57;11.77;;;18.80;87.70;;;;;;4933692;29;20450;-75
2023/04/30 08:58:31;;;;;;;12.47;11.87;;;19.70;87.10;;;;;;4933502;29;20457;-76
2023/04/30 09:00:59;;;;;;;13.00;12.40;;;19.50;83.90;;;;;;4933517;29;20493;-75
2023/04/30 09:03:27;;;;;;;12.57;11.97;;;19.00;86.50;;;;;;4933306;29;20462;-76
2023/04/30 09:05:54;;;;;;;12.40;11.77;;;19.00;89.30;;;;;;4933303;29;20461;-76
2023/04/30 09:08:41;;;;;;;12.80;12.20;;;19.10;83.40;;;;;;4933166;29;20453;-76
2023/04/30 09:11:21;;;;;;;11.73;11.13;;;18.90;86.00;;;;;;4933143;29;20450;-75
2023/04/30 09:13:51;;;;;;;11.87;11.27;;;18.80;86.70;;;;;;4933478;29;20882;-75
2023/04/30 09:16:18;;;;;;;11.70;11.10;;;18.80;85.70;;;;;;4933449;29;20497;-76
2023/04/30 09:18:45;;;;;;;11.70;11.20;;;19.00;84.40;;;;;;4933359;29;20465;-76
2023/04/30 09:21:11;;;;;;;12.30;11.80;;;19.10;84.90;;;;;;4933016;29;20493;-77
2023/04/30 09:23:54;;;;;;;12.30;11.80;;;19.40;84.10;;;;;;4932975;29;20480;-76
2023/04/30 09:26:25;;;;;;;12.80;12.10;;;19.00;82.30;;;;;;4932916;29;20461;-75
2023/04/30 09:28:58;;;;;;;12.87;12.23;;;19.10;83.80;;;;;;4933087;29;20481;-75
2023/04/30 09:31:25;;;;;;;12.50;11.77;;;19.10;81.50;;;;;;4932876;29;20779;-76
2023/04/30 09:33:53;;;;;;;11.70;11.20;;;19.00;80.60;;;;;;4932569;29;20461;-74
2023/04/30 09:36:19;;;;;;;12.93;12.43;;;19.20;80.40;;;;;;4931139;29;20532;-75
2023/04/30 09:38:46;;;;;;;13.10;12.60;;;19.40;80.10;;;;;;4931916;29;20465;-76
2023/04/30 09:41:23;;;;;;;11.73;11.13;;;19.10;80.00;;;;;;4931801;29;21027;-75
2023/04/30 09:43:50;;;;;;;11.23;10.67;;;19.20;80.90;;;;;;4932503;29;20489;-75
2023/04/30 09:46:21;;;;;;;12.40;11.90;;;19.20;79.50;;;;;;4932810;29;20943;-75
2023/04/30 09:48:56;;;;;;;12.47;11.93;;;19.50;79.80;;;;;;4931988;29;20556;-74
2023/04/30 09:51:23;;;;;;;11.50;11.03;;;19.50;79.70;;;;;;4932384;29;20500;-77
2023/04/30 09:53:51;;;;;;;11.70;11.30;;;19.30;78.60;;;;;;4932416;29;20457;-75
2023/04/30 09:56:21;;;;;;;12.00;11.50;;;19.30;78.60;;;;;;4932822;29;20480;-75
2023/04/30 09:58:51;;;;;;;11.87;11.47;;;19.10;78.30;;;;;;4932612;29;20504;-75
2023/04/30 10:01:20;;;;;;;11.30;10.80;;;19.20;78.90;;;;;;4932481;29;20497;-75
2023/04/30 10:03:48;;;;;;;11.60;11.10;;;19.60;77.80;;;;;;4932641;29;20457;-75
2023/04/30 10:06:16;;;;;;;12.37;11.87;;;20.00;78.30;;;;;;4934566;29;20465;-75
2023/04/30 10:08:44;;;;;;;11.80;11.30;;;19.80;74.30;;;;;;4932459;29;20461;-75
2023/04/30 10:11:16;;;;;;;11.80;11.20;;;19.50;75.80;;;;;;4932500;29;20450;-74
2023/04/30 10:13:46;;;;;;;11.40;10.90;;;19.10;76.90;;;;;;4932255;29;20907;-76
2023/04/30 10:16:20;;;;;;;11.70;11.30;;;18.80;77.10;;;;;;4932390;29;20476;-76
2023/04/30 10:18:51;;;;;;;12.47;11.87;;;18.80;78.10;;;;;;4932750;29;20826;-74
2023/04/30 10:21:22;;;;;;;11.90;11.33;;;18.70;78.60;;;;;;4932528;29;20485;-74
2023/04/30 10:23:49;;;;;;;11.90;11.23;;;18.60;77.90;;;;;;4932579;29;20468;-76
2023/04/30 10:26:17;;;;;;;11.57;11.07;;;18.40;78.20;;;;;;4933127;29;20461;-74
2023/04/30 10:28:45;;;;;;;10.40;10.00;;;18.60;79.00;;;;;;4932185;29;20512;-75
2023/04/30 10:31:13;;;;;;;11.00;10.60;;;18.90;79.70;;;;;;4931949;29;20504;-75
2023/04/30 10:33:49;;;;;;;11.90;11.30;;;19.00;79.00;;;;;;4932110;29;20453;-75
2023/04/30 10:36:24;;;;;;;11.37;10.87;;;19.10;79.90;;;;;;4932338;29;20456;-76
2023/04/30 10:38:52;;;;;;;12.03;11.53;;;18.80;78.40;;;;;;4931859;29;20943;-75
2023/04/30 10:41:20;;;;;;;13.67;13.03;;;18.90;77.70;;;;;;4931953;29;20501;-75
2023/04/30 10:43:47;;;;;;;12.57;12.07;;;19.00;78.30;;;;;;4932200;29;20481;-75
2023/04/30 10:46:23;;;;;;;11.60;11.10;;;19.10;78.40;;;;;;4931974;29;20469;-77
2023/04/30 10:48:50;;;;;;;12.50;11.80;;;19.40;77.80;;;;;;4935958;29;20493;-74
2023/04/30 10:51:18;;;;;;;12.60;12.00;;;19.60;78.50;;;;;;4936012;29;20453;-76
2023/04/30 10:53:45;;;;;;;12.63;12.03;;;19.40;77.50;;;;;;4935799;29;20468;-75
2023/04/30 10:56:12;;;;;;;11.67;11.17;;;19.20;79.20;;;;;;4935487;29;20461;-75
2023/04/30 10:58:40;;;;;;;13.13;12.53;;;18.90;80.20;;;;;;4935554;29;20457;-75
2023/04/30 11:01:10;;;;;;;11.57;11.07;;;18.90;79.90;;;;;;4935504;29;21007;-74
2023/04/30 11:03:38;;;;;;;12.90;12.30;;;18.90;78.40;;;;;;4935423;29;20900;-75
2023/04/30 11:06:13;;;;;;;14.00;13.27;;;18.70;78.80;;;;;;4935591;29;20458;-75
2023/04/30 11:08:44;;;;;;;13.00;12.50;;;18.90;78.80;;;;;;4935258;29;20488;-74
2023/04/30 11:11:13;;;;;;;12.03;11.50;;;19.00;77.50;;;;;;4935366;29;20512;-76
2023/04/30 11:13:41;;;;;;;12.93;12.33;;;19.20;77.50;;;;;;4935258;29;20880;-75
2023/04/30 11:16:08;;;;;;;14.70;14.07;;;19.00;76.80;;;;;;4935046;29;20465;-75
2023/04/30 11:18:41;;;;;;;12.13;11.53;;;19.40;77.20;;;;;;4935300;29;20449;-76
2023/04/30 11:21:09;;;;;;;11.90;11.40;;;19.60;77.70;;;;;;4935180;29;20497;-75
2023/04/30 11:23:36;;;;;;;12.23;11.67;;;19.70;76.50;;;;;;4934977;29;20854;-75
2023/04/30 11:26:04;;;;;;;13.60;13.00;;;19.50;73.60;;;;;;4935060;29;20465;-76
2023/04/30 11:28:34;;;;;;;12.70;12.20;;;19.30;75.20;;;;;;4935333;29;20457;-75
2023/04/30 11:31:02;;;;;;;11.53;10.97;;;19.40;78.00;;;;;;4935125;29;20446;-75
2023/04/30 11:33:30;;;;;;;12.00;11.50;;;19.40;79.30;;;;;;4934763;29;20496;-76
2023/04/30 11:35:58;;;;;;;11.90;11.40;;;19.60;75.40;;;;;;4934929;29;20465;-76
2023/04/30 11:38:27;;;;;;;12.63;12.03;;;19.80;76.00;;;;;;4934786;29;20449;-75
2023/04/30 11:40:54;;;;;;;12.33;11.87;;;20.20;75.70;;;;;;4934639;29;20500;-76
2023/04/30 11:43:23;;;;;;;12.33;11.73;;;19.80;74.80;;;;;;4934920;29;20450;-75
2023/04/30 11:46:05;;;;;;;12.97;12.17;;;19.70;76.10;;;;;;4934953;29;20453;-75
2023/04/30 11:48:34;;;;;;;13.63;12.90;;;19.80;78.80;;;;;;4935146;29;20465;-75
2023/04/30 11:51:04;;;;;;;14.43;13.63;;;20.10;77.30;;;;;;4934846;29;20445;-75
2023/04/30 11:53:31;;;;;;;13.87;13.00;;;20.10;74.20;;;;;;4934882;29;20859;-75
2023/04/30 11:56:03;;;;;;;12.70;12.10;;;20.10;74.50;;;;;;4934544;29;20457;-75
2023/04/30 11:58:36;;;;;;;12.67;11.87;;;20.40;72.60;;;;;;4934478;29;20536;-75
2023/04/30 12:01:03;;;;;;;11.70;11.20;;;20.30;74.50;;;;;;4934670;29;20496;-75
2023/04/30 12:03:30;;;;;;;11.70;11.20;;;20.00;72.60;;;;;;4934544;29;20560;-75
2023/04/30 12:05:57;;;;;;;11.63;11.23;;;19.80;74.10;;;;;;4934425;29;20866;-76
2023/04/30 12:08:24;;;;;;;12.63;12.10;;;19.80;73.20;;;;;;4934278;29;20462;-76
2023/04/30 12:10:51;;;;;;;12.37;11.87;;;19.90;73.00;;;;;;4934193;29;20453;-76
2023/04/30 12:13:17;;;;;;;11.80;11.20;;;20.10;73.50;;;;;;4934668;29;20453;-76
2023/04/30 12:15:57;;;;;;;11.30;10.80;;;20.00;74.80;;;;;;4934114;29;20462;-75
2023/04/30 12:18:24;;;;;;;11.63;11.10;;;19.70;73.90;;;;;;4934260;29;20487;-75
2023/04/30 12:20:51;;;;;;;11.20;10.80;;;19.80;76.60;;;;;;4933961;29;20493;-75
2023/04/30 12:23:19;;;;;;;11.27;10.87;;;19.50;74.80;;;;;;4934108;29;20464;-75
2023/04/30 12:25:46;;;;;;;11.50;11.00;;;19.40;76.00;;;;;;4934226;29;20529;-75
2023/04/30 12:28:13;;;;;;;12.17;11.67;;;19.60;76.20;;;;;;4933795;29;20943;-77
2023/04/30 12:30:42;;;;;;;12.00;11.50;;;19.60;75.00;;;;;;4933720;29;20646;-76
2023/04/30 12:33:10;;;;;;;11.50;10.90;;;19.40;76.00;;;;;;4933769;29;20452;-75
2023/04/30 12:35:41;;;;;;;11.97;11.40;;;19.40;75.80;;;;;;4933835;29;20449;-75
2023/04/30 12:38:08;;;;;;;14.47;13.57;;;19.50;76.30;;;;;;4933682;29;20460;-75
2023/04/30 12:40:36;;;;;;;12.60;12.00;;;19.40;76.10;;;;;;4933431;29;20847;-75
2023/04/30 12:43:03;;;;;;;12.63;12.03;;;19.50;76.60;;;;;;4934038;29;20943;-75
2023/04/30 12:45:47;;;;;;;12.23;11.63;;;19.50;76.20;;;;;;4933701;29;20461;-76
2023/04/30 12:48:16;;;;;;;12.20;11.60;;;19.20;78.30;;;;;;4934086;29;20493;-75
2023/04/30 12:50:47;;;;;;;11.90;11.40;;;19.20;78.20;;;;;;4933386;29;20454;-76
2023/04/30 12:53:14;;;;;;;12.60;12.00;;;19.00;77.70;;;;;;4933385;29;20948;-75
2023/04/30 12:55:41;;;;;;;12.60;11.83;;;19.40;79.00;;;;;;4933282;29;20461;-77
2023/04/30 12:58:09;;;;;;;12.17;11.60;;;19.80;77.70;;;;;;4933222;29;20465;-75
2023/04/30 13:00:46;;;;;;;10.77;10.37;;;19.70;77.00;;;;;;4933258;29;20461;-75
2023/04/30 13:03:13;;;;;;;11.53;11.03;;;19.80;78.50;;;;;;4933197;29;20488;-75
2023/04/30 13:05:42;;;;;;;12.80;12.00;;;19.90;78.40;;;;;;4933170;29;20468;-75
2023/04/30 13:08:08;;;;;;;12.00;11.40;;;20.40;77.20;;;;;;4933033;29;21273;-76
2023/04/30 13:10:35;;;;;;;13.47;12.87;;;20.00;75.60;;;;;;4932384;29;20832;-75
2023/04/30 13:13:02;;;;;;;12.80;12.23;;;20.00;76.80;;;;;;4933178;29;20464;-77
2023/04/30 13:15:28;;;;;;;11.83;11.33;;;19.80;77.30;;;;;;4933071;29;20465;-76
2023/04/30 13:17:55;;;;;;;11.43;10.93;;;20.30;76.90;;;;;;4932954;29;20465;-75
2023/04/30 13:20:23;;;;;;;12.40;11.90;;;21.20;74.30;;;;;;4932906;29;20540;-77
2023/04/30 13:22:52;;;;;;;12.53;11.93;;;22.10;73.80;;;;;;4932802;29;20489;-75
2023/04/30 13:25:18;;;;;;;12.80;12.30;;;22.80;70.00;;;;;;4932975;29;20453;-78
2023/04/30 13:27:45;;;;;;;12.00;11.50;;;23.00;68.90;;;;;;4932890;29;20457;-75
2023/04/30 13:30:12;;;;;;;12.47;11.97;;;22.10;67.60;;;;;;4932601;29;20458;-75
2023/04/30 13:32:39;;;;;;;12.40;11.77;;;21.00;69.20;;;;;;4932703;29;20810;-75
2023/04/30 13:35:07;;;;;;;12.57;12.03;;;20.60;72.20;;;;;;4932630;29;20454;-76
2023/04/30 13:37:34;;;;;;;12.73;12.23;;;20.30;73.10;;;;;;4926481;29;20932;-73
2023/04/30 13:40:03;;;;;;;12.00;11.50;;;20.50;73.50;;;;;;4932134;29;20466;-73
2023/04/30 13:42:30;;;;;;;11.40;10.93;;;21.00;72.30;;;;;;4931337;29;20522;-72
2023/04/30 13:44:57;;;;;;;12.77;12.17;;;21.30;70.80;;;;;;4931191;29;20458;-76
2023/04/30 13:47:24;;;;;;;12.43;11.87;;;21.10;70.00;;;;;;4931382;29;20621;-76
2023/04/30 13:49:51;;;;;;;13.30;12.60;;;20.90;71.20;;;;;;4928807;29;20958;-77
2023/04/30 13:52:17;;;;;;;11.90;11.40;;;20.90;70.90;;;;;;4931479;29;20449;-76
2023/04/30 13:54:44;;;;;;;12.00;11.50;;;20.80;71.40;;;;;;4931159;29;20773;-76
2023/04/30 13:57:12;;;;;;;13.10;12.50;;;20.80;72.80;;;;;;4931042;29;20951;-77
2023/04/30 13:59:39;;;;;;;11.33;10.83;;;20.50;72.80;;;;;;4931068;29;20568;-77
2023/04/30 14:02:06;;;;;;;11.40;10.90;;;20.20;72.60;;;;;;4931253;29;21022;-76
2023/04/30 14:04:32;;;;;;;11.90;11.40;;;19.90;72.30;;;;;;4928722;29;20449;-75
2023/04/30 14:06:59;;;;;;;12.10;11.50;;;19.60;73.20;;;;;;4931334;29;20457;-76
2023/04/30 14:09:26;;;;;;;13.07;12.57;;;19.60;73.40;;;;;;4932223;29;20485;-75
2023/04/30 14:11:54;;;;;;;12.00;11.30;;;19.90;73.00;;;;;;4932120;29;20481;-76
2023/04/30 14:14:22;;;;;;;13.63;12.77;;;19.90;74.80;;;;;;4932241;29;20505;-75
2023/04/30 14:16:49;;;;;;;11.43;10.83;;;19.50;73.70;;;;;;4932281;29;20970;-76
2023/04/30 14:19:16;;;;;;;11.73;10.93;;;19.40;73.20;;;;;;4932326;29;20456;-75
2023/04/30 14:21:42;;;;;;;12.53;11.83;;;19.60;73.60;;;;;;4931860;29;21009;-76
2023/04/30 14:24:11;;;;;;;12.07;11.57;;;20.00;73.10;;;;;;4931950;29;20469;-74
2023/04/30 14:26:39;;;;;;;11.77;11.27;;;20.40;74.30;;;;;;4931928;29;20458;-76
2023/04/30 14:29:06;;;;;;;13.00;12.50;;;20.20;71.40;;;;;;4931897;29;21082;-74
2023/04/30 14:31:34;;;;;;;11.47;11.00;;;19.80;72.80;;;;;;4932042;29;20493;-75
2023/04/30 14:34:01;;;;;;;11.20;10.70;;;19.50;72.40;;;;;;4931873;29;20449;-76
2023/04/30 14:36:28;;;;;;;11.70;11.20;;;19.50;72.80;;;;;;4931884;29;20847;-77
2023/04/30 14:38:55;;;;;;;12.93;12.23;;;19.20;72.80;;;;;;4931820;29;20473;-75
2023/04/30 14:41:22;;;;;;;11.30;10.60;;;19.40;74.70;;;;;;4931437;29;20512;-74
2023/04/30 14:43:51;;;;;;;12.40;11.80;;;19.70;73.40;;;;;;4931835;29;20587;-76
2023/04/30 14:46:18;;;;;;;11.93;11.43;;;19.80;73.10;;;;;;4932024;29;20453;-76
2023/04/30 14:48:46;;;;;;;12.17;11.70;;;19.70;72.00;;;;;;4931905;29;20922;-76
2023/04/30 14:51:13;;;;;;;11.67;11.23;;;19.60;72.90;;;;;;4931724;29;20458;-76
2023/04/30 14:53:39;;;;;;;12.07;11.53;;;19.70;73.10;;;;;;4931672;29;20760;-76
2023/04/30 14:56:07;;;;;;;11.50;11.07;;;19.70;73.30;;;;;;4931805;29;20487;-76
2023/04/30 14:58:33;;;;;;;13.93;13.13;;;19.90;74.10;;;;;;4932148;29;20461;-76
2023/04/30 15:01:00;;;;;;;12.20;11.70;;;19.80;73.00;;;;;;4931721;29;20985;-77
2023/04/30 15:03:27;;;;;;;12.47;11.93;;;19.40;74.40;;;;;;4926702;29;20504;-76
2023/04/30 15:05:55;;;;;;;11.50;11.00;;;19.40;74.60;;;;;;4931652;29;20655;-76
2023/04/30 15:08:22;;;;;;;11.97;11.37;;;19.40;74.20;;;;;;4931269;29;20508;-74
2023/04/30 15:10:49;;;;;;;11.50;11.00;;;19.50;73.80;;;;;;4930440;29;20477;-76